Flight Track Log - Related Links

Times and Time Zones

All times are in EDT time to prevent confusion due to time zone crossing. See the N700QA flight status page for this flight to view local times or setup timezone preferences in your user account.

Time Position Orientation Groundspeed Altitude Reporting Facility
EDT Latitude Longitude Course Direction KTS MPH feet Rate Location/Type
Sat 10:23:40 AM 34.0333 -117.6333 140° Southeast 203 234 2,800  Level Southern California TRACON
Sat 10:24:40 AM 33.9833 -117.5833 140° Southeast 229 264 4,300 1,700 Climbing Southern California TRACON
Sat 10:25:40 AM 33.9167 -117.5333 148° Southeast 251 289 6,200 2,200 Climbing Southern California TRACON
Sat 10:26:40 AM 33.8667 -117.4833 140° Southeast 262 302 8,700 2,056 Climbing Southern California TRACON
Sat 10:27:28 AM 33.8189 -117.4461 147° Southeast 275 316 9,900 1,266 Climbing Los Angeles Center
Sat 10:28:29 AM 33.7453 -117.3883 147° Southeast 309 356 11,000 550 Climbing Los Angeles Center
Sat 10:29:28 AM 33.6669 -117.3200 144° Southeast 339 390 11,000  Level Los Angeles Center
Sat 10:30:30 AM 33.5906 -117.2542 144° Southeast 340 391 11,000  Level Los Angeles Center
Sat 10:31:31 AM 33.5144 -117.1897 145° Southeast 336 387 11,000  Level Los Angeles Center
Sat 10:32:35 AM 33.4222 -117.1489 160° South 323 372 11,000 -444 Level Los Angeles Center
Sat 10:33:46 AM 33.3292 -117.0947 154° Southeast 312 359 10,000 -952 Descending Los Angeles Center
Sat 10:34:41 AM 33.2500 -117.0500 155° Southeast 300 345 9,000 -522 Descending Southern California TRACON
Sat 10:35:41 AM 33.1833 -117.0000 148° Southeast 300 345 9,000  Level Southern California TRACON
Sat 10:36:41 AM 33.1167 -116.9500 148° Southeast 283 326 9,000 -550 Level Southern California TRACON
Sat 10:37:41 AM 33.0333 -116.9167 161° South 283 326 7,900 -1,350 Descending Southern California TRACON
Sat 10:38:41 AM 32.9667 -116.9000 168° South 275 316 6,300 -950 Descending Southern California TRACON
Sat 10:39:41 AM 32.9000 -116.8833 168° South 242 278 6,000 -500 Descending Southern California TRACON
Sat 10:40:41 AM 32.8333 -116.8833 180° South 256 295 5,300 -500 Descending Southern California TRACON
Sat 10:41:41 AM 32.7667 -116.9000 192° South 245 282 5,000 -350 Descending Southern California TRACON
Sat 10:42:41 AM 32.7000 -116.9333 203° Southwest 235 270 4,600 -450 Descending Southern California TRACON
Sat 10:43:41 AM 32.6667 -116.9667 220° Southwest 223 257 4,100 -850 Descending Southern California TRACON
Sat 10:44:41 AM 32.7000 -117.0333 301° West 180 207 2,900 -1,100 Descending Southern California TRACON
Sat 10:45:41 AM 32.7000 -117.0833 270° West 171 197 1,900 -950 Descending Southern California TRACON
Sat 10:46:41 AM 32.7167 -117.1333 292° West 157 181 1,000 -694 Descending Southern California TRACON
Sat 10:48:08 AM 32.7331 -117.1908 289° West 151 174 200 -552 Descending Los Angeles Center
Sat 10:50:00 AM 32.7336 -117.1897 63° Northeast  Level Estimated

Login

Don't have an account? Register now (free) for customized features, flight alerts, and more!